Time;durP1;ratioP1;P1;durP2;ratioP2;P2;SDS_P1;SDS_P2;PMS_P1;PMS_P2;Temp;Humidity;BMP_temperature;BMP_pressure;BME280_temperature;BME280_humidity;BME280_pressure;Samples;Min_cycle;Max_cycle;Signal;HPM_P1;HPM_P2
2022/03/02 00:00:52;;;;;;;4.55;1.42;;;6.20;99.90;;;;;;4983446;28;20059;-74
2022/03/02 00:03:18;;;;;;;2.63;1.15;;;6.20;99.90;;;;;;4998337;28;20038;-74
2022/03/02 00:05:43;;;;;;;1.00;0.50;;;6.10;99.90;;;;;;4997335;28;20042;-74
2022/03/02 00:08:09;;;;;;;3.78;1.42;;;6.10;99.90;;;;;;4998827;28;20416;-74
2022/03/02 00:10:35;;;;;;;1.80;1.33;;;6.10;99.90;;;;;;4979744;28;20060;-74
2022/03/02 00:13:00;;;;;;;4.43;2.17;;;6.10;99.90;;;;;;4981691;28;20117;-74
2022/03/02 00:15:26;;;;;;;1.48;1.00;;;6.20;99.90;;;;;;4995630;28;20037;-74
2022/03/02 00:17:52;;;;;;;1.90;0.93;;;6.10;99.90;;;;;;4981749;28;20178;-74
2022/03/02 00:20:18;;;;;;;1.80;1.10;;;6.10;99.90;;;;;;4995092;28;20033;-74
2022/03/02 00:22:43;;;;;;;2.08;1.10;;;6.10;99.90;;;;;;5000410;28;20502;-74
2022/03/02 00:25:09;;;;;;;3.10;1.48;;;6.10;99.90;;;;;;4999151;28;20046;-74
2022/03/02 00:27:36;;;;;;;4.28;1.27;;;6.10;99.90;;;;;;4995544;28;20042;-74
2022/03/02 00:30:04;;;;;;;2.47;1.48;;;6.10;99.90;;;;;;4998356;28;20102;-74
2022/03/02 00:32:30;;;;;;;3.63;1.50;;;6.10;99.90;;;;;;4996411;28;20049;-74
2022/03/02 00:34:56;;;;;;;1.33;0.73;;;6.10;99.90;;;;;;4999967;28;20030;-74
2022/03/02 00:37:21;;;;;;;1.27;0.73;;;6.00;99.90;;;;;;4982158;28;20492;-74
2022/03/02 00:39:47;;;;;;;4.30;1.55;;;6.00;99.90;;;;;;4994581;28;20474;-74
2022/03/02 00:42:12;;;;;;;3.40;1.25;;;6.00;99.90;;;;;;5000965;28;20060;-74
2022/03/02 00:44:38;;;;;;;3.85;1.95;;;6.00;99.90;;;;;;4979676;28;20060;-74
2022/03/02 00:47:05;;;;;;;2.13;0.95;;;6.00;99.90;;;;;;5002057;28;20046;-74
2022/03/02 00:49:32;;;;;;;3.97;1.17;;;6.00;99.90;;;;;;5003120;28;20048;-74
2022/03/02 00:51:58;;;;;;;3.03;1.00;;;6.00;99.90;;;;;;4998680;28;20034;-74
2022/03/02 00:54:24;;;;;;;1.60;1.10;;;6.00;99.90;;;;;;4996794;28;20034;-74
2022/03/02 00:56:50;;;;;;;1.23;1.13;;;6.00;99.90;;;;;;4981446;28;20042;-74
2022/03/02 00:59:16;;;;;;;2.75;0.70;;;6.00;99.90;;;;;;4982057;28;20376;-74
2022/03/02 01:01:42;;;;;;;2.60;1.08;;;6.00;99.90;;;;;;4995829;28;20050;-74
2022/03/02 01:04:08;;;;;;;6.65;1.92;;;5.90;99.90;;;;;;4996130;28;20447;-74
2022/03/02 01:06:34;;;;;;;2.60;0.80;;;5.90;99.90;;;;;;5001214;28;20042;-74
2022/03/02 01:09:00;;;;;;;1.35;0.70;;;5.90;99.90;;;;;;4981338;28;20042;-74
2022/03/02 01:11:26;;;;;;;3.22;1.02;;;5.90;99.90;;;;;;4986577;28;20049;-74
2022/03/02 01:13:52;;;;;;;3.90;1.27;;;5.90;99.90;;;;;;4959573;28;20444;-74
2022/03/02 01:16:17;;;;;;;1.23;0.98;;;5.90;99.90;;;;;;4987347;28;20093;-74
2022/03/02 01:18:43;;;;;;;0.93;0.73;;;5.90;99.90;;;;;;4977039;28;20133;-74
2022/03/02 01:21:09;;;;;;;2.25;0.60;;;5.80;99.90;;;;;;4980345;28;20041;-74
2022/03/02 01:23:34;;;;;;;1.45;0.98;;;5.80;99.90;;;;;;5001336;28;20115;-74
2022/03/02 01:26:00;;;;;;;5.22;1.30;;;5.80;99.90;;;;;;4980604;28;20034;-74
2022/03/02 01:28:26;;;;;;;2.08;1.10;;;5.80;99.90;;;;;;4981302;28;20096;-74
2022/03/02 01:30:52;;;;;;;2.30;1.15;;;5.80;99.90;;;;;;4982014;28;20049;-74
2022/03/02 01:33:18;;;;;;;3.28;1.77;;;5.80;99.90;;;;;;4996258;28;20507;-74
2022/03/02 01:35:43;;;;;;;4.43;2.22;;;5.80;99.90;;;;;;4984765;28;20037;-74
2022/03/02 01:38:09;;;;;;;4.05;1.63;;;5.80;99.90;;;;;;4997309;28;20068;-74
2022/03/02 01:40:35;;;;;;;0.98;0.73;;;5.70;99.90;;;;;;4992903;28;20488;-74
2022/03/02 01:43:01;;;;;;;3.05;1.50;;;5.80;99.90;;;;;;4989100;28;20048;-74
2022/03/02 01:45:26;;;;;;;3.13;1.33;;;5.80;99.90;;;;;;4995797;28;20119;-74
2022/03/02 01:47:52;;;;;;;1.92;1.20;;;5.70;99.90;;;;;;4998752;28;20037;-74
2022/03/02 01:50:18;;;;;;;3.97;1.52;;;5.70;99.90;;;;;;4998344;28;20054;-74
2022/03/02 01:52:44;;;;;;;2.15;1.05;;;5.70;99.90;;;;;;5000196;28;20411;-74
2022/03/02 01:55:11;;;;;;;4.25;1.17;;;5.70;99.90;;;;;;4995117;28;20038;-74
2022/03/02 01:57:36;;;;;;;2.70;0.98;;;5.70;99.90;;;;;;4974953;28;20061;-74
2022/03/02 02:00:08;;;;;;;5.03;2.00;;;5.70;99.90;;;;;;4996572;28;20388;-74
2022/03/02 02:02:33;;;;;;;1.58;1.02;;;5.70;99.90;;;;;;4982348;28;20148;-74
2022/03/02 02:04:59;;;;;;;5.00;2.22;;;5.70;99.90;;;;;;4998696;28;20053;-74
2022/03/02 02:07:26;;;;;;;1.40;1.13;;;5.70;99.90;;;;;;4981615;28;20041;-74
2022/03/02 02:09:52;;;;;;;2.28;1.08;;;5.60;99.90;;;;;;4980584;28;20705;-74
2022/03/02 02:12:18;;;;;;;4.30;1.55;;;5.60;99.90;;;;;;4991569;28;20042;-74
2022/03/02 02:14:44;;;;;;;3.47;2.05;;;5.60;99.90;;;;;;4995104;28;20113;-74
2022/03/02 02:17:10;;;;;;;3.45;1.33;;;5.60;99.90;;;;;;4983196;28;20491;-74
2022/03/02 02:19:36;;;;;;;3.70;1.02;;;5.60;99.90;;;;;;5002135;28;20052;-74
2022/03/02 02:22:01;;;;;;;4.07;1.30;;;5.60;99.90;;;;;;5001452;28;20046;-74
2022/03/02 02:24:27;;;;;;;2.28;1.35;;;5.60;99.90;;;;;;4982334;28;20037;-74
2022/03/02 02:26:54;;;;;;;2.03;0.80;;;5.60;99.90;;;;;;4999536;28;20040;-74
2022/03/02 02:29:23;;;;;;;1.65;1.02;;;5.60;99.90;;;;;;5000634;28;20403;-74
2022/03/02 02:31:49;;;;;;;1.42;0.40;;;5.50;99.90;;;;;;4983804;28;20451;-74
2022/03/02 02:34:15;;;;;;;1.65;1.05;;;5.50;99.90;;;;;;5001359;28;20045;-74
2022/03/02 02:36:42;;;;;;;1.10;1.00;;;5.50;99.90;;;;;;5002591;28;20502;-74
2022/03/02 02:39:09;;;;;;;2.28;1.10;;;5.50;99.90;;;;;;4999359;28;20112;-74
2022/03/02 02:41:35;;;;;;;2.83;1.23;;;5.50;99.90;;;;;;4991453;28;20073;-74
2022/03/02 02:44:01;;;;;;;9.50;1.30;;;5.40;99.90;;;;;;4981615;28;20069;-74
2022/03/02 02:46:27;;;;;;;2.53;1.60;;;5.40;99.90;;;;;;4986136;28;20034;-74
2022/03/02 02:48:53;;;;;;;1.63;0.77;;;5.40;99.90;;;;;;5001200;28;20061;-74
2022/03/02 02:51:18;;;;;;;1.63;1.20;;;5.40;99.90;;;;;;5001252;28;20076;-74
2022/03/02 02:53:44;;;;;;;1.35;1.05;;;5.30;99.90;;;;;;5000020;28;20049;-74
2022/03/02 02:56:10;;;;;;;1.13;0.73;;;5.30;99.90;;;;;;4974541;28;20088;-74
2022/03/02 02:58:36;;;;;;;3.05;1.25;;;5.30;99.90;;;;;;4983307;28;20037;-74
2022/03/02 03:01:02;;;;;;;1.55;1.08;;;5.30;99.90;;;;;;4984365;28;20080;-74
2022/03/02 03:03:28;;;;;;;1.52;0.55;;;5.30;99.90;;;;;;4996793;28;20042;-74
2022/03/02 03:05:54;;;;;;;1.02;0.43;;;5.30;99.90;;;;;;4982499;28;20040;-74
2022/03/02 03:08:20;;;;;;;2.67;0.98;;;5.30;99.90;;;;;;4996692;28;20491;-74
2022/03/02 03:10:47;;;;;;;2.72;1.20;;;5.30;99.90;;;;;;4977270;28;20034;-74
2022/03/02 03:13:14;;;;;;;2.28;0.38;;;5.30;99.90;;;;;;4975929;28;20441;-74
2022/03/02 03:15:40;;;;;;;3.20;0.60;;;5.30;99.90;;;;;;4979955;28;20396;-74
2022/03/02 03:18:06;;;;;;;2.63;0.98;;;5.30;99.90;;;;;;4971172;28;20031;-74
2022/03/02 03:20:33;;;;;;;1.80;0.50;;;5.30;99.90;;;;;;4971578;28;20442;-74
2022/03/02 03:22:58;;;;;;;2.00;0.95;;;5.30;99.90;;;;;;4998619;28;20507;-74
2022/03/02 03:25:25;;;;;;;2.10;1.10;;;5.30;99.90;;;;;;4998744;28;20046;-74
2022/03/02 03:27:51;;;;;;;0.77;0.50;;;5.30;99.90;;;;;;5000949;28;20419;-74
2022/03/02 03:30:19;;;;;;;4.32;1.63;;;5.30;99.90;;;;;;5000329;28;20046;-74
2022/03/02 03:32:45;;;;;;;0.77;0.63;;;5.20;99.90;;;;;;4998522;28;20643;-74
2022/03/02 03:35:12;;;;;;;3.33;1.77;;;5.20;99.90;;;;;;5000272;28;20065;-74
2022/03/02 03:37:39;;;;;;;3.30;1.17;;;5.20;99.90;;;;;;4998859;28;20511;-74
2022/03/02 03:40:07;;;;;;;2.33;1.17;;;5.20;99.90;;;;;;4996042;28;20038;-74
2022/03/02 03:42:33;;;;;;;3.08;1.23;;;5.20;99.90;;;;;;4980369;28;20068;-74
2022/03/02 03:44:58;;;;;;;3.78;1.85;;;5.20;99.90;;;;;;5001970;28;20045;-74
2022/03/02 03:47:24;;;;;;;1.48;0.75;;;5.20;99.90;;;;;;4983122;28;20041;-74
2022/03/02 03:49:50;;;;;;;2.83;0.68;;;5.20;99.90;;;;;;4999526;28;20157;-74
2022/03/02 03:52:15;;;;;;;7.72;2.05;;;5.20;99.90;;;;;;4999977;28;20066;-74
2022/03/02 03:54:41;;;;;;;4.60;1.50;;;5.20;99.90;;;;;;4981158;28;20033;-74
2022/03/02 03:57:07;;;;;;;2.45;0.88;;;5.20;99.90;;;;;;4987011;28;20622;-74
2022/03/02 03:59:33;;;;;;;5.10;1.67;;;5.10;99.90;;;;;;5002943;28;20402;-74
2022/03/02 04:01:59;;;;;;;4.03;1.08;;;5.10;99.90;;;;;;4999605;28;20129;-74
2022/03/02 04:04:25;;;;;;;6.50;1.40;;;5.10;99.90;;;;;;5000287;28;20050;-74
2022/03/02 04:06:51;;;;;;;2.50;2.13;;;5.10;99.90;;;;;;4985574;28;20037;-74
2022/03/02 04:09:17;;;;;;;1.98;1.20;;;5.10;99.90;;;;;;4975871;28;20050;-74
2022/03/02 04:11:43;;;;;;;6.45;1.77;;;5.10;99.90;;;;;;4980554;28;20037;-74
2022/03/02 04:14:09;;;;;;;2.72;0.80;;;5.10;99.90;;;;;;4984226;28;20037;-74
2022/03/02 04:16:35;;;;;;;6.28;1.77;;;5.10;99.90;;;;;;4997875;28;20026;-74
2022/03/02 04:19:01;;;;;;;3.70;1.75;;;5.10;99.90;;;;;;4982976;28;20025;-74
2022/03/02 04:21:27;;;;;;;3.00;1.48;;;5.10;99.90;;;;;;4994974;28;20095;-74
2022/03/02 04:23:53;;;;;;;2.17;1.90;;;5.10;99.90;;;;;;4997194;28;20037;-74
2022/03/02 04:26:18;;;;;;;2.17;1.90;;;5.10;99.90;;;;;;4997503;28;20030;-74
2022/03/02 04:28:44;;;;;;;4.05;1.58;;;5.10;99.90;;;;;;4999514;28;20040;-74
2022/03/02 04:31:10;;;;;;;7.07;1.50;;;5.10;99.90;;;;;;5000390;28;20129;-74
2022/03/02 04:33:36;;;;;;;2.47;1.60;;;5.00;99.90;;;;;;4998195;28;20129;-74
2022/03/02 04:36:03;;;;;;;1.63;1.00;;;5.00;99.90;;;;;;4998411;28;20113;-74
2022/03/02 04:38:29;;;;;;;3.58;1.55;;;5.00;99.90;;;;;;4982767;28;20038;-74
2022/03/02 04:40:54;;;;;;;7.68;1.98;;;5.00;99.90;;;;;;4979256;28;20037;-74
2022/03/02 04:43:20;;;;;;;8.80;2.90;;;5.00;99.90;;;;;;4980305;28;20033;-74
2022/03/02 04:45:45;;;;;;;2.38;1.48;;;5.00;99.90;;;;;;4991300;28;20522;-74
2022/03/02 04:48:11;;;;;;;4.50;1.67;;;5.00;99.90;;;;;;4999378;28;20046;-74
2022/03/02 04:50:38;;;;;;;2.83;1.20;;;5.00;99.90;;;;;;4996957;28;20069;-74
2022/03/02 04:53:04;;;;;;;3.30;1.85;;;5.00;99.90;;;;;;4997747;28;20045;-74
2022/03/02 04:55:30;;;;;;;6.35;1.77;;;5.00;99.90;;;;;;4997579;28;20113;-74
2022/03/02 04:57:58;;;;;;;3.00;1.15;;;4.90;99.90;;;;;;4983218;28;20050;-74
2022/03/02 05:00:32;;;;;;;3.13;2.30;;;4.90;99.90;;;;;;4998208;28;20129;-74
2022/03/02 05:02:59;;;;;;;4.40;2.03;;;4.90;99.90;;;;;;5002459;28;20038;-74
2022/03/02 05:05:26;;;;;;;2.97;2.20;;;4.90;99.90;;;;;;4979866;28;20045;-74
2022/03/02 05:07:53;;;;;;;3.22;1.77;;;4.80;99.90;;;;;;4996498;28;20794;-74
2022/03/02 05:10:21;;;;;;;3.95;1.85;;;4.80;99.90;;;;;;4996628;28;20044;-74
2022/03/02 05:12:46;;;;;;;2.90;1.05;;;4.70;99.90;;;;;;4996815;28;20068;-74
2022/03/02 05:15:14;;;;;;;2.97;1.17;;;4.70;99.90;;;;;;4997223;28;20038;-74
2022/03/02 05:17:41;;;;;;;3.67;0.98;;;4.70;99.90;;;;;;4979845;28;20042;-74
2022/03/02 05:20:08;;;;;;;3.33;0.77;;;4.70;99.90;;;;;;4980515;28;20046;-74
2022/03/02 05:22:34;;;;;;;3.30;1.20;;;4.70;99.90;;;;;;4962426;28;20052;-74
2022/03/02 05:25:01;;;;;;;0.90;0.70;;;4.70;99.90;;;;;;4959157;28;20038;-74
2022/03/02 05:27:26;;;;;;;4.80;1.73;;;4.70;99.90;;;;;;4974461;28;20041;-74
2022/03/02 05:29:52;;;;;;;2.60;0.80;;;4.60;99.90;;;;;;4995453;28;20511;-74
2022/03/02 05:32:18;;;;;;;4.30;1.90;;;4.60;99.90;;;;;;4998721;28;20533;-74
2022/03/02 05:34:43;;;;;;;3.53;1.60;;;4.50;99.90;;;;;;4980236;28;20044;-74
2022/03/02 05:37:09;;;;;;;2.08;1.00;;;4.50;99.90;;;;;;4987386;28;20050;-74
2022/03/02 05:39:35;;;;;;;3.33;1.85;;;4.40;99.90;;;;;;4989170;28;20068;-74
2022/03/02 05:42:01;;;;;;;2.35;1.08;;;4.30;99.90;;;;;;4999188;28;20041;-74
2022/03/02 05:44:26;;;;;;;4.30;1.25;;;4.40;99.90;;;;;;4999070;28;20092;-74
2022/03/02 05:46:52;;;;;;;2.75;1.58;;;4.30;99.90;;;;;;5000423;28;20045;-74
2022/03/02 05:49:18;;;;;;;3.17;1.40;;;4.30;99.90;;;;;;4983760;28;20046;-74
2022/03/02 05:51:43;;;;;;;4.40;1.65;;;4.30;99.90;;;;;;4982491;28;20056;-74
2022/03/02 05:54:10;;;;;;;4.22;1.10;;;4.20;99.90;;;;;;4994437;28;20033;-74
2022/03/02 05:56:40;;;;;;;2.35;1.20;;;4.20;99.90;;;;;;4979512;28;20087;-74
2022/03/02 05:59:10;;;;;;;3.90;0.98;;;4.10;99.90;;;;;;4995596;28;20061;-74
2022/03/02 06:01:37;;;;;;;4.68;0.93;;;4.10;99.90;;;;;;4958633;28;20045;-74
2022/03/02 06:04:05;;;;;;;3.60;1.50;;;4.10;99.90;;;;;;5000513;28;20045;-74
2022/03/02 06:06:32;;;;;;;1.73;1.02;;;4.10;99.90;;;;;;4977300;28;20042;-74
2022/03/02 06:09:00;;;;;;;7.68;2.13;;;4.00;99.90;;;;;;4989733;28;20041;-74
2022/03/02 06:11:26;;;;;;;4.30;2.63;;;4.00;99.90;;;;;;4994042;28;20042;-74
2022/03/02 06:13:52;;;;;;;3.40;2.03;;;4.00;99.90;;;;;;4981198;28;20060;-74
2022/03/02 06:16:18;;;;;;;4.75;1.77;;;4.00;99.90;;;;;;4998709;28;20041;-74
2022/03/02 06:18:44;;;;;;;4.00;1.77;;;3.90;99.90;;;;;;4982048;28;20120;-74
2022/03/02 06:21:24;;;;;;;4.35;1.75;;;3.90;99.90;;;;;;4994942;28;20503;-74
2022/03/02 06:23:50;;;;;;;3.58;1.20;;;3.90;99.90;;;;;;4996390;28;20037;-74
2022/03/02 06:26:18;;;;;;;2.42;1.20;;;3.90;99.90;;;;;;4998719;28;20128;-74
2022/03/02 06:28:44;;;;;;;2.67;1.20;;;3.90;99.90;;;;;;4974791;28;20033;-74
2022/03/02 06:31:10;;;;;;;1.23;0.63;;;3.80;99.90;;;;;;4995187;28;20054;-74
2022/03/02 06:33:35;;;;;;;4.57;1.73;;;3.80;99.90;;;;;;4994775;28;20068;-74
2022/03/02 06:36:01;;;;;;;1.98;1.50;;;3.80;99.90;;;;;;4981151;28;20434;-74
2022/03/02 06:38:27;;;;;;;6.65;2.65;;;3.70;99.90;;;;;;4976055;28;20041;-74
2022/03/02 06:41:02;;;;;;;1.67;1.48;;;3.70;99.90;;;;;;4996738;28;20498;-74
2022/03/02 06:43:34;;;;;;;3.88;2.00;;;3.60;99.90;;;;;;4999074;28;20559;-74
2022/03/02 06:46:09;;;;;;;3.45;2.08;;;3.60;99.90;;;;;;4982135;28;20034;-74
2022/03/02 06:48:51;;;;;;;3.53;1.42;;;3.60;99.90;;;;;;4978960;28;20683;-74
2022/03/02 06:51:21;;;;;;;1.42;0.80;;;3.50;99.90;;;;;;4996693;28;20183;-74
2022/03/02 06:53:49;;;;;;;5.30;1.63;;;3.50;99.90;;;;;;4967657;28;20042;-74
2022/03/02 06:56:20;;;;;;;3.78;1.15;;;3.50;99.90;;;;;;4997473;28;20480;-74
2022/03/02 06:58:51;;;;;;;2.47;1.35;;;3.50;99.90;;;;;;4998305;28;20076;-74
2022/03/02 07:01:25;;;;;;;0.60;0.47;;;3.50;99.90;;;;;;4994743;28;20042;-74
2022/03/02 07:03:54;;;;;;;0.30;0.22;;;3.50;99.90;;;;;;4998067;28;20041;-74
2022/03/02 07:06:21;;;;;;;3.58;1.25;;;3.60;99.90;;;;;;4976715;28;20057;-74
2022/03/02 07:08:48;;;;;;;1.85;1.10;;;3.50;99.90;;;;;;4994297;28;20050;-74
2022/03/02 07:11:16;;;;;;;2.45;0.77;;;3.50;99.90;;;;;;4973680;28;20082;-74
2022/03/02 07:13:42;;;;;;;1.27;0.93;;;3.50;99.90;;;;;;4982594;28;20584;-74
2022/03/02 07:16:08;;;;;;;1.60;1.10;;;3.50;99.90;;;;;;4984435;28;20333;-74
2022/03/02 07:18:34;;;;;;;1.85;0.93;;;3.50;99.90;;;;;;4996530;28;20129;-74
2022/03/02 07:21:06;;;;;;;2.75;1.58;;;3.40;99.90;;;;;;4995101;28;20511;-75
2022/03/02 07:23:34;;;;;;;1.27;0.95;;;3.40;99.90;;;;;;4983573;28;20115;-74
2022/03/02 07:26:01;;;;;;;2.45;1.20;;;3.40;99.90;;;;;;4984622;28;20049;-75
2022/03/02 07:28:27;;;;;;;1.60;0.82;;;3.40;99.90;;;;;;4977731;28;20069;-74
2022/03/02 07:30:57;;;;;;;5.88;1.30;;;3.50;99.90;;;;;;4996038;28;20088;-74
2022/03/02 07:33:23;;;;;;;1.17;0.98;;;3.50;99.90;;;;;;4996889;28;20041;-75
2022/03/02 07:35:56;;;;;;;3.28;1.45;;;3.50;99.90;;;;;;4995157;28;20527;-74
2022/03/02 07:38:22;;;;;;;1.83;1.02;;;3.60;99.90;;;;;;4988226;28;20372;-75
2022/03/02 07:40:49;;;;;;;8.77;1.25;;;3.60;99.90;;;;;;4991185;28;20499;-74
2022/03/02 07:43:15;;;;;;;2.15;0.90;;;3.70;99.90;;;;;;4991156;28;20046;-74
2022/03/02 07:45:41;;;;;;;2.72;1.02;;;3.70;99.90;;;;;;4987116;28;20042;-74
2022/03/02 07:48:06;;;;;;;3.05;1.75;;;3.80;99.90;;;;;;4994979;28;20160;-74
2022/03/02 07:50:33;;;;;;;2.97;1.60;;;3.80;99.90;;;;;;4980710;28;20042;-74
2022/03/02 07:53:01;;;;;;;1.70;0.98;;;3.90;99.90;;;;;;4985038;28;20046;-74
2022/03/02 07:55:28;;;;;;;2.92;1.60;;;3.90;99.90;;;;;;4973576;28;20037;-74
2022/03/02 07:57:55;;;;;;;1.10;0.55;;;3.90;99.90;;;;;;4987079;28;20029;-74
2022/03/02 08:00:22;;;;;;;3.22;1.17;;;4.00;99.90;;;;;;4974877;28;20049;-74
2022/03/02 08:02:51;;;;;;;1.90;1.23;;;4.00;99.90;;;;;;4982073;28;20041;-74
2022/03/02 08:05:19;;;;;;;4.75;1.10;;;4.10;99.90;;;;;;4994969;28;20050;-74
2022/03/02 08:07:44;;;;;;;3.00;1.38;;;4.10;99.90;;;;;;4977209;28;20042;-74
2022/03/02 08:10:10;;;;;;;1.27;1.15;;;4.20;99.90;;;;;;4963385;28;20038;-74
2022/03/02 08:12:36;;;;;;;3.63;1.55;;;4.20;99.90;;;;;;4969725;28;20046;-74
2022/03/02 08:15:03;;;;;;;3.17;1.52;;;4.20;99.90;;;;;;5002625;28;20399;-74
2022/03/02 08:17:29;;;;;;;3.30;1.40;;;4.30;99.90;;;;;;4966523;28;20618;-74
2022/03/02 08:19:54;;;;;;;2.05;1.50;;;4.30;99.90;;;;;;4975275;28;20095;-74
2022/03/02 08:22:24;;;;;;;7.10;1.25;;;4.40;99.90;;;;;;4989360;28;20042;-74
2022/03/02 08:25:03;;;;;;;1.77;1.00;;;4.40;99.90;;;;;;4978814;28;20133;-74
2022/03/02 08:27:30;;;;;;;4.03;0.85;;;4.40;99.90;;;;;;4984321;28;20095;-74
2022/03/02 08:29:56;;;;;;;4.07;1.23;;;4.50;99.90;;;;;;4993689;28;20635;-74
2022/03/02 08:32:24;;;;;;;1.25;0.70;;;4.50;99.90;;;;;;4992864;28;20053;-74
2022/03/02 08:34:50;;;;;;;2.03;0.88;;;4.60;99.90;;;;;;4994514;28;20391;-74
2022/03/02 08:37:19;;;;;;;1.00;0.85;;;4.60;99.90;;;;;;4994436;28;20276;-74
2022/03/02 08:39:47;;;;;;;1.77;1.33;;;4.70;99.90;;;;;;4992061;28;20300;-74
2022/03/02 08:42:13;;;;;;;2.95;1.08;;;4.70;99.90;;;;;;4992383;28;20617;-74
2022/03/02 08:44:39;;;;;;;1.50;1.33;;;4.70;99.90;;;;;;4963392;28;20069;-74
2022/03/02 08:47:06;;;;;;;2.17;1.27;;;4.70;99.90;;;;;;4969588;28;20053;-74
2022/03/02 08:49:32;;;;;;;0.43;0.22;;;4.80;99.90;;;;;;4982361;28;20062;-74
2022/03/02 08:51:58;;;;;;;1.25;0.60;;;4.90;99.90;;;;;;4980819;28;20041;-74
2022/03/02 08:54:26;;;;;;;2.78;0.55;;;4.90;99.90;;;;;;4978577;28;20561;-75
2022/03/02 08:56:53;;;;;;;3.85;1.00;;;4.90;99.90;;;;;;4981760;28;20121;-74
2022/03/02 08:59:20;;;;;;;1.77;0.98;;;5.00;99.90;;;;;;4965875;28;20743;-74
2022/03/02 09:01:51;;;;;;;1.80;0.85;;;5.00;99.90;;;;;;4982760;28;20038;-74
2022/03/02 09:04:18;;;;;;;2.35;1.00;;;5.10;99.90;;;;;;4985930;28;20442;-72
2022/03/02 09:06:45;;;;;;;2.58;1.48;;;5.10;99.90;;;;;;4973647;28;20056;-74
2022/03/02 09:09:11;;;;;;;1.15;0.73;;;5.10;99.90;;;;;;4985900;28;20088;-74
2022/03/02 09:11:38;;;;;;;2.60;1.27;;;5.10;99.90;;;;;;4995030;28;20062;-74
2022/03/02 09:14:04;;;;;;;1.95;0.90;;;5.20;99.90;;;;;;4994018;28;20408;-74
2022/03/02 09:16:30;;;;;;;3.13;1.27;;;5.30;99.90;;;;;;4994331;28;20046;-74
2022/03/02 09:18:56;;;;;;;1.92;1.27;;;5.30;99.90;;;;;;4992642;28;20041;-74
2022/03/02 09:21:25;;;;;;;0.80;0.80;;;5.30;99.90;;;;;;4978255;28;20038;-74
2022/03/02 09:23:50;;;;;;;2.50;0.70;;;5.30;99.90;;;;;;4993958;28;20475;-74
2022/03/02 09:26:18;;;;;;;0.20;0.20;;;5.40;99.90;;;;;;4996425;28;20038;-74
2022/03/02 09:28:46;;;;;;;0.80;0.52;;;5.40;99.90;;;;;;4989007;28;20045;-74
2022/03/02 09:31:14;;;;;;;1.20;0.63;;;5.40;99.90;;;;;;4992964;28;20060;-74
2022/03/02 09:33:40;;;;;;;2.50;1.17;;;5.40;99.90;;;;;;4972937;28;20496;-74
2022/03/02 09:36:08;;;;;;;3.00;1.13;;;5.50;99.90;;;;;;4996292;28;20068;-74
2022/03/02 09:38:36;;;;;;;1.23;0.93;;;5.50;99.90;;;;;;4979173;28;20538;-74
2022/03/02 09:41:13;;;;;;;1.83;0.95;;;5.50;99.90;;;;;;4992391;28;20030;-75
2022/03/02 09:43:42;;;;;;;3.15;1.15;;;5.50;99.90;;;;;;4986098;28;20057;-74
2022/03/02 09:46:11;;;;;;;0.68;0.57;;;5.60;99.90;;;;;;4975499;28;20569;-74
2022/03/02 09:48:46;;;;;;;2.17;0.75;;;5.60;99.90;;;;;;4996372;28;20056;-74
2022/03/02 09:51:32;;;;;;;2.38;1.20;;;5.60;99.90;;;;;;4997770;28;20033;-74
2022/03/02 09:54:01;;;;;;;1.77;1.30;;;5.70;99.90;;;;;;4996112;28;20046;-74
2022/03/02 09:56:31;;;;;;;2.53;1.20;;;5.70;99.90;;;;;;4972318;28;20666;-74
2022/03/02 09:58:59;;;;;;;0.77;0.60;;;5.80;99.90;;;;;;4977030;28;20027;-74
2022/03/02 10:01:26;;;;;;;4.40;1.83;;;5.80;99.90;;;;;;4971911;28;20038;-74
2022/03/02 10:03:53;;;;;;;0.63;0.40;;;5.80;99.90;;;;;;4989392;28;20034;-74
2022/03/02 10:06:21;;;;;;;3.97;1.52;;;5.80;99.90;;;;;;4992397;28;20116;-74
2022/03/02 10:08:53;;;;;;;3.53;1.02;;;5.80;99.90;;;;;;4988172;28;20407;-74
2022/03/02 10:11:22;;;;;;;1.85;0.98;;;5.90;99.90;;;;;;4991040;28;20038;-74
2022/03/02 10:13:48;;;;;;;0.35;0.35;;;5.90;99.90;;;;;;4993539;28;20046;-74
2022/03/02 10:16:21;;;;;;;3.45;1.08;;;5.90;99.90;;;;;;4975231;28;20033;-74
2022/03/02 10:18:54;;;;;;;1.27;0.65;;;6.00;99.90;;;;;;4990850;28;20523;-72
2022/03/02 10:21:30;;;;;;;2.92;1.15;;;6.00;99.90;;;;;;4994282;28;20188;-72
2022/03/02 10:24:01;;;;;;;2.60;0.50;;;6.00;99.90;;;;;;4974423;28;20308;-72
2022/03/02 10:26:29;;;;;;;1.00;0.82;;;6.00;99.90;;;;;;4976648;28;20711;-73
2022/03/02 10:29:03;;;;;;;2.20;1.15;;;6.00;99.90;;;;;;4977758;28;20037;-73
2022/03/02 10:31:41;;;;;;;1.55;0.93;;;6.00;99.90;;;;;;4981662;28;20057;-73
2022/03/02 10:34:15;;;;;;;2.75;1.75;;;6.00;99.90;;;;;;4960276;28;20598;-73
2022/03/02 10:36:45;;;;;;;3.97;1.42;;;6.00;99.90;;;;;;4995385;28;20057;-73
2022/03/02 10:39:38;;;;;;;0.85;0.40;;;6.10;99.90;;;;;;4981336;28;20033;-73
2022/03/02 10:42:05;;;;;;;5.15;0.77;;;6.10;99.90;;;;;;4981930;28;20385;-73
2022/03/02 10:44:47;;;;;;;3.30;0.90;;;6.10;99.90;;;;;;5025127;28;20513;-73
2022/03/02 10:47:17;;;;;;;0.98;0.40;;;6.20;99.90;;;;;;5013057;28;20163;-75
2022/03/02 10:49:44;;;;;;;3.92;0.95;;;6.20;99.90;;;;;;4996846;28;20507;-74
2022/03/02 10:52:14;;;;;;;3.00;1.40;;;6.20;99.90;;;;;;5008792;28;20049;-74
2022/03/02 10:54:41;;;;;;;3.50;1.55;;;6.30;99.90;;;;;;5008309;28;20105;-75
2022/03/02 10:57:11;;;;;;;1.30;0.60;;;6.30;99.90;;;;;;4993836;28;20037;-75
2022/03/02 10:59:38;;;;;;;3.25;1.23;;;6.30;99.90;;;;;;5009589;28;20033;-75
2022/03/02 11:02:04;;;;;;;1.40;0.75;;;6.30;99.90;;;;;;4985767;28;20069;-75
2022/03/02 11:04:30;;;;;;;1.38;0.70;;;6.40;99.90;;;;;;5006660;28;20068;-75
2022/03/02 11:06:56;;;;;;;2.42;2.22;;;6.40;99.90;;;;;;4991467;28;20546;-75
2022/03/02 11:09:25;;;;;;;4.63;1.52;;;6.50;99.90;;;;;;5005508;28;20376;-74
2022/03/02 11:11:53;;;;;;;2.10;0.80;;;6.50;99.90;;;;;;5006203;28;20045;-74
2022/03/02 11:14:19;;;;;;;1.88;1.27;;;6.50;99.90;;;;;;5005578;28;20052;-74
2022/03/02 11:16:46;;;;;;;2.83;0.90;;;6.50;99.90;;;;;;4986945;28;20029;-74
2022/03/02 11:19:16;;;;;;;2.42;0.85;;;6.50;99.90;;;;;;5005768;28;20042;-75
2022/03/02 11:21:44;;;;;;;2.35;0.75;;;6.50;99.90;;;;;;5001567;28;20036;-75
2022/03/02 11:24:15;;;;;;;3.00;1.63;;;6.60;99.90;;;;;;5007063;28;20068;-74
2022/03/02 11:26:43;;;;;;;1.20;0.63;;;6.60;99.90;;;;;;5001669;28;20038;-75
2022/03/02 11:29:11;;;;;;;3.22;1.42;;;6.70;99.90;;;;;;4989496;28;20042;-75
2022/03/02 11:31:52;;;;;;;2.45;1.58;;;6.60;99.90;;;;;;5006313;28;20563;-75
2022/03/02 11:34:25;;;;;;;2.40;1.20;;;6.70;99.90;;;;;;5004303;28;20033;-75
2022/03/02 11:36:59;;;;;;;2.67;0.98;;;6.70;99.90;;;;;;5006886;28;20276;-75
2022/03/02 11:39:27;;;;;;;2.45;1.25;;;6.80;99.90;;;;;;5016400;28;20494;-75
2022/03/02 11:42:02;;;;;;;4.20;1.30;;;6.80;99.90;;;;;;4990419;28;20033;-76
2022/03/02 11:44:30;;;;;;;4.60;1.90;;;6.80;99.90;;;;;;5007720;28;20439;-75
2022/03/02 11:46:57;;;;;;;1.88;1.25;;;6.80;99.90;;;;;;5010794;28;20116;-76
2022/03/02 11:49:52;;;;;;;2.53;1.17;;;6.90;99.90;;;;;;5010439;28;20034;-75
2022/03/02 11:52:23;;;;;;;0.70;0.43;;;6.90;99.90;;;;;;4996610;28;20548;-75
2022/03/02 11:55:05;;;;;;;2.15;1.63;;;7.00;99.70;;;;;;5008889;28;20431;-75
2022/03/02 11:57:31;;;;;;;5.32;1.58;;;7.00;98.80;;;;;;4997130;28;20434;-75
2022/03/02 12:00:19;;;;;;;3.60;1.67;;;7.00;99.60;;;;;;5009565;28;20040;-76
2022/03/02 12:02:48;;;;;;;2.58;1.13;;;7.00;98.50;;;;;;5010572;28;20037;-76
2022/03/02 12:05:16;;;;;;;3.42;1.27;;;7.00;99.90;;;;;;5010081;28;20052;-75
2022/03/02 12:07:43;;;;;;;2.17;1.50;;;7.00;99.90;;;;;;5010671;28;20439;-76
2022/03/02 12:10:15;;;;;;;1.92;1.27;;;7.00;98.50;;;;;;5003689;28;20044;-76
2022/03/02 12:12:42;;;;;;;4.28;1.20;;;7.00;98.10;;;;;;4987546;28;20491;-76
2022/03/02 12:15:08;;;;;;;3.95;1.85;;;7.00;95.80;;;;;;4991796;28;20562;-76
2022/03/02 12:17:36;;;;;;;1.27;0.77;;;7.20;96.60;;;;;;5002266;28;20526;-76
2022/03/02 12:20:04;;;;;;;2.58;0.98;;;7.20;97.40;;;;;;5009988;28;20446;-77
2022/03/02 12:22:32;;;;;;;1.73;0.93;;;7.20;95.40;;;;;;5010894;28;20044;-76
2022/03/02 12:24:58;;;;;;;7.20;2.60;;;7.20;95.10;;;;;;4995783;28;20052;-76
2022/03/02 12:27:24;;;;;;;1.77;1.08;;;7.30;95.90;;;;;;5011007;28;20502;-76
2022/03/02 12:30:04;;;;;;;1.95;0.93;;;7.30;96.10;;;;;;5013177;28;20124;-76
2022/03/02 12:32:32;;;;;;;2.03;1.38;;;7.30;95.50;;;;;;5018965;28;20053;-76
2022/03/02 12:34:59;;;;;;;1.10;0.60;;;7.40;96.40;;;;;;5011934;28;20044;-76
2022/03/02 12:37:27;;;;;;;1.77;0.85;;;7.40;95.80;;;;;;5010744;28;20041;-76
2022/03/02 12:39:53;;;;;;;4.15;1.00;;;7.40;94.80;;;;;;4991956;28;20735;-76
2022/03/02 12:42:19;;;;;;;0.38;0.30;;;7.40;95.80;;;;;;4992682;28;20091;-76
2022/03/02 12:44:47;;;;;;;1.73;1.15;;;7.40;96.50;;;;;;5009017;28;20140;-76
2022/03/02 12:47:15;;;;;;;2.65;1.17;;;7.40;96.50;;;;;;5009051;28;20041;-76
2022/03/02 12:49:43;;;;;;;2.42;1.08;;;7.40;96.60;;;;;;5010393;28;20037;-76
2022/03/02 12:52:10;;;;;;;3.00;1.45;;;7.50;93.40;;;;;;5010059;28;20507;-76
2022/03/02 12:54:38;;;;;;;1.40;0.68;;;7.60;91.80;;;;;;4994071;28;20376;-76
2022/03/02 12:57:07;;;;;;;2.78;1.55;;;7.60;93.70;;;;;;5028071;28;20056;-76
2022/03/02 12:59:33;;;;;;;2.30;1.45;;;7.60;92.70;;;;;;4995462;28;20435;-76